Afton, CA

7:04 AM PDT on September 17, 2014 (GMT -0700)
The Ranch | Change Station
CLOSE
Current Station
Personal Weather Station
Location: Live Oak, CA
Elevation: 79 ft
Nearby Weather Stations

Elev 79 ft 39.30 °N, 121.83 °W | Updated 6 seconds ago

Partly Cloudy
Partly Cloudy
59.4 °F
Feels Like 59.4 °F
N
0.0
Wind Variable Wind from SE
Gusts 0.0 mph

Today
High -- | Low -- °F
--% Chance of Precip.
Yesterday
High -- | Low -- °F
Precip. -- in
6:50 AM 7:12 PM
Waning Crescent, 36% visible
Pressure 29.78 in
Visibility 10.0 miles
Clouds Clear
Dew Point 55 °F
Humidity 85%
Rainfall 0.00 in
Snow Depth 0 in , 0 in , 0 in
UV 0 out of 12
Pollen 6.20 out of 12
Ozone Good
Flu Activity Not available.
METAR KOVE 171353Z AUTO 18006KT 10SM CLR 18/06 A2977 RMK AO2 SLP083 T01830056

More Conditions Fewer Conditions

Pressure 29.78 in
Visibility 10.0 miles
Clouds Clear
Dew Point 55 °F
Humidity 85%
Rainfall 0.00 in
Snow Depth 0 in , 0 in , 0 in
UV 0 out of 12
Pollen 6.20 out of 12
Ozone Good
Flu Activity Not available.
METAR KOVE 171353Z AUTO 18006KT 10SM CLR 18/06 A2977 RMK AO2 SLP083 T01830056

More Conditions Fewer Conditions

10-Day Weather Forecast

Almanac

Astronomy

Sep. 17, 2014 Rise Set
Actual Time 6:50 AM PDT 7:12 PM PDT
Civil Twilight 6:23 AM PDT 7:39 PM PDT
Nautical Twilight 5:52 AM PDT 8:11 PM PDT
Astronomical Twilight 5:20 AM PDT 8:43 PM PDT
Moon 12:56 AM PDT 3:25 PM PDT
Length of Visible Light 13h 15m
Length of Day
12h 21m
Tomorrow will be 2m 33s shorter.
Waning Crescent, 36% of the Moon is Illuminated
Today
Waning Crescent
Sep 24
New
Oct 1
First Quarter
Oct 8
Full
Oct 15
Last Quarter

Today's Extremes

State Highs State Lows

Community

WunderPhotos

Upload Photos

1,754,040 photos uploaded!

WunderBlogs® & News

Nearby

Air Quality

  Air Quality AQ Index Pollutant
Yesterday Good
OZONE
Current Good
OZONE

Snow Depth

Station Depth Elevation
Adin Mountain 0 in 6200 ft
Tahoe City Cross 0 in 6750 ft
Blue Lakes 0 in 8000 ft
Summit Meadow 0 in 9122 ft
Spratt Creek 1 in 6200 ft

Earthquake Activity

City Distance Mag. Time & Date
Cobb, California 62 miles 2.7 1:23 PM PDT
2014-09-16
Minimum magnitude displayed is 2.5.

Coastal Water Temperatures

Place Temperature
No Stations Reporting

Nearby Weather Stations